Open Full Screen Window  High Contrast Mode
Wind Gusting 00 knots
08
September 25, 2017 4:38 AM CDT
Present Weather: Mist
Weather Information
Wind Direction
  310 °
Wind Speed
  08 kt (9 mph)
Wind Gust
  00 kt (0 mph)
Altimeter
30.01 in
Visibility
5 SM
Temperature
09° C
48° F
Dewpoint
08° C
46° F
Humidity
94%
1hr Rain Fall
00.00 in.
24hr Rain Fall
00.00 in.
Sky Condition
Overcast @ 500 ft
IFR

METAR KBJI 250938Z AUTO 31008KT 5SM BR OVC005 09/08 A3001 RMK AO2 T00850083

*Background is not an actual portrayal of the airport.